Gwinn, MI

7:47 PM EST en Noviembre 22, 2014 (GMT -0500)
Sawyer International | Change Station
CLOSE
Current Station
Aeropuerto
Location: Gwinn,
Altura: 1220 ft
Estaciones meteorológicas cercanas
Aviso en curso: Special Statement

Alt 1220 ft 46.34 °N, 87.40 °W | Updated 1 hour ago

Nublado
Nublado
34 ° F
Sensación térmica 30 ° F
N
5
Viento Variable Viento desde Oeste

Hoy
Alta -- | Baja -- ° F
--% Posibilidad de precipitaciones
Ayer
Alta -- | Baja -- ° F
Precip. -- pul
8:00 AM 5:10 PM
Luna nueva, 0% visible
Presión 29.70 pul
Visibilidad 7.0 Millas
Nubes Nublado 1400 ft
Vientos helados 30 ° F
Punto de rocío 30 ° F
Humedad 87%
Precipitaciones 0.00 pul
Espesor de la nieve No disponible.
UV 0 de una escala de 12
Polen .10 de una escala de 12
Calidad del aire No disponible.
Flu Activity No disponible.
METAR KSAW 222346Z 27004KT 7SM OVC014 01/M01 A2970

More Conditions Fewer Conditions

Presión 29.70 pul
Visibilidad 7.0 Millas
Nubes Nublado 1400 ft
Vientos helados 30 ° F
Punto de rocío 30 ° F
Humedad 87%
Precipitaciones 0.00 pul
Espesor de la nieve No disponible.
UV 0 de una escala de 12
Polen .10 de una escala de 12
Calidad del aire No disponible.
Flu Activity No disponible.
METAR KSAW 222346Z 27004KT 7SM OVC014 01/M01 A2970

More Conditions Fewer Conditions

10-Day Weather Forecast

Almanac

Astronomía

Nov. 22, 2014 Salida Puesta
Hora real
Crepúsculo civil
Crepúsculo náutico
Crepúsculo astronómico
Luna
Horas de luz
Horas de luz
Tomorrow will be .
, % of the Moon is Illuminated

Extremos de hoy

Máximos del estado Bajos del estado

Community

WunderPhotos

Upload Photos

1,772,938 ¡fotos cargadas!

WunderBlogs® & News

Nearby

Calidad del aire

  Calidad del aire Índice AQ Contaminante
Not available.

Grosos de nieve

Estación Profundido Altura

Actividad de terremotos

Ciudad Distance Mag. Tiempo y dato
Magnitud mínima muestra es 2,5.

Temperaturas de aguas costeras

Lugar Temperatura

Estaciones meteorológicas cercanas